createdAt,value
2023-03-18T00:02:35.346Z,1.3
2023-03-18T00:14:35.333Z,1.1
2023-03-18T00:26:35.323Z,1.1
2023-03-18T00:38:35.329Z,1.5
2023-03-18T00:50:35.338Z,1.5
2023-03-18T01:02:35.337Z,1.5
2023-03-18T01:14:35.331Z,1.5
2023-03-18T01:26:35.337Z,1.5
2023-03-18T01:38:35.418Z,0.7
2023-03-18T01:50:35.341Z,0.7
2023-03-18T02:02:35.326Z,0.7
2023-03-18T02:14:35.333Z,1.1
2023-03-18T02:26:35.625Z,1.1
2023-03-18T02:38:35.327Z,1.0
2023-03-18T02:50:35.350Z,1.0
2023-03-18T03:02:35.542Z,1.0
2023-03-18T03:14:35.341Z,0.9
2023-03-18T03:26:35.342Z,0.9
2023-03-18T03:38:35.329Z,1.0
2023-03-18T03:50:35.333Z,1.0
2023-03-18T04:02:35.393Z,1.0
2023-03-18T04:14:35.327Z,0.8
2023-03-18T04:26:35.336Z,0.8
2023-03-18T04:38:35.340Z,0.7
2023-03-18T04:50:35.628Z,0.7
2023-03-18T05:02:35.343Z,0.7
2023-03-18T05:14:35.349Z,0.6
2023-03-18T05:26:35.336Z,0.6
2023-03-18T05:38:35.331Z,0.6
2023-03-18T05:50:35.332Z,0.6
2023-03-18T06:02:35.373Z,0.6
2023-03-18T06:14:35.356Z,1.0
2023-03-18T06:26:35.367Z,1.0
2023-03-18T06:38:35.335Z,0.8
2023-03-18T06:50:35.337Z,0.8
2023-03-18T07:02:37.001Z,0.8
2023-03-18T07:14:35.333Z,0.6
2023-03-18T07:26:35.337Z,0.6
2023-03-18T07:38:35.325Z,0.6
2023-03-18T07:50:35.417Z,0.6
2023-03-18T08:02:35.367Z,0.6
2023-03-18T08:14:35.326Z,0.8
2023-03-18T08:26:35.327Z,0.8
2023-03-18T08:38:35.355Z,1.1
2023-03-18T08:50:35.338Z,1.1
2023-03-18T09:02:35.332Z,1.1
2023-03-18T09:14:35.337Z,2.5
2023-03-18T09:26:35.514Z,2.5
2023-03-18T09:38:35.329Z,0.8
2023-03-18T09:50:35.435Z,0.8
2023-03-18T10:02:35.343Z,0.8
2023-03-18T10:14:36.391Z,0.9
2023-03-18T10:26:35.358Z,0.9
2023-03-18T10:38:35.340Z,1.7
2023-03-18T10:50:35.789Z,1.7
2023-03-18T11:02:35.480Z,1.7
2023-03-18T11:14:35.336Z,1.5
2023-03-18T11:26:35.347Z,1.5
2023-03-18T11:38:35.328Z,0.9
2023-03-18T11:50:35.658Z,0.9
2023-03-18T12:02:35.345Z,0.9
2023-03-18T12:14:35.463Z,1.5
2023-03-18T12:26:35.466Z,1.5
2023-03-18T12:38:35.453Z,0.7
2023-03-18T12:50:35.374Z,0.7
2023-03-18T13:02:35.458Z,0.7
2023-03-18T13:14:37.606Z,0.9
2023-03-18T13:26:35.420Z,0.9
2023-03-18T13:38:35.346Z,1.4
2023-03-18T13:50:35.414Z,1.4
2023-03-18T14:02:35.368Z,1.4
2023-03-18T14:14:35.363Z,1.9
2023-03-18T14:26:35.356Z,1.9
2023-03-18T14:38:35.343Z,1.7
2023-03-18T14:50:35.358Z,1.7
2023-03-18T15:02:35.443Z,1.7
2023-03-18T15:14:35.333Z,0.6
2023-03-18T15:26:35.325Z,0.6
2023-03-18T15:38:35.334Z,0.7
2023-03-18T15:50:35.374Z,0.7
2023-03-18T16:02:35.496Z,0.7
2023-03-18T16:14:35.440Z,0.6
2023-03-18T16:26:35.440Z,0.6
2023-03-18T16:38:35.329Z,0.8
2023-03-18T16:50:35.392Z,0.8
2023-03-18T17:02:35.325Z,0.8
2023-03-18T17:14:35.349Z,1.0
2023-03-18T17:26:35.429Z,1.0
2023-03-18T17:38:35.398Z,0.7
2023-03-18T17:50:35.874Z,0.7
2023-03-18T18:02:35.491Z,0.7
2023-03-18T18:14:35.387Z,1.0
2023-03-18T18:26:35.329Z,1.0
2023-03-18T18:38:35.750Z,1.0
2023-03-18T18:50:35.553Z,1.0
2023-03-18T19:02:35.361Z,1.0
2023-03-18T19:14:35.386Z,1.5
2023-03-18T19:26:35.338Z,1.5
2023-03-18T19:38:35.431Z,1.7
2023-03-18T19:50:35.428Z,1.7
2023-03-18T20:02:35.329Z,1.7
2023-03-18T20:14:35.415Z,2.8
2023-03-18T20:26:35.353Z,2.8
2023-03-18T20:38:35.344Z,1.3
2023-03-18T20:50:35.432Z,1.3
2023-03-18T21:02:35.465Z,1.3
2023-03-18T21:14:35.444Z,1.5
2023-03-18T21:26:35.328Z,1.5
2023-03-18T21:38:35.444Z,1.4
2023-03-18T21:50:35.453Z,1.4
2023-03-18T22:02:35.380Z,1.4
2023-03-18T22:14:35.334Z,1.4
2023-03-18T22:26:35.473Z,1.4
2023-03-18T22:38:35.341Z,1.3
2023-03-18T22:50:35.413Z,1.3
2023-03-18T23:02:35.488Z,1.3
2023-03-18T23:14:35.468Z,1.0
2023-03-18T23:26:35.329Z,1.0
2023-03-18T23:38:35.461Z,1.2
2023-03-18T23:50:35.347Z,1.2
